createdAt,value
2017-11-21T00:00:13.502Z,23.70
2017-11-21T00:02:41.056Z,23.27
2017-11-21T00:05:08.594Z,21.77
2017-11-21T00:07:36.120Z,21.93
2017-11-21T00:10:03.648Z,21.47
2017-11-21T00:12:32.100Z,20.93
2017-11-21T00:14:59.624Z,21.20
2017-11-21T00:17:27.151Z,20.50
2017-11-21T00:19:54.675Z,22.17
2017-11-21T00:22:31.011Z,23.67
2017-11-21T00:24:58.535Z,19.63
2017-11-21T00:27:26.055Z,21.87
2017-11-21T00:29:53.584Z,23.57
2017-11-21T00:32:21.120Z,21.63
2017-11-21T00:34:48.667Z,21.67
2017-11-21T00:37:16.189Z,23.57
2017-11-21T00:39:43.733Z,21.80
2017-11-21T00:42:11.250Z,21.43
2017-11-21T00:44:38.776Z,24.03
2017-11-21T00:47:06.301Z,22.10
2017-11-21T00:49:33.819Z,20.93
2017-11-21T00:52:01.347Z,20.13
2017-11-21T00:54:28.883Z,21.23
2017-11-21T00:56:56.410Z,17.77
2017-11-21T00:59:23.941Z,19.10
2017-11-21T01:01:51.460Z,20.87
2017-11-21T01:04:18.997Z,19.33
2017-11-21T01:06:46.521Z,18.77
2017-11-21T01:09:14.039Z,22.20
2017-11-21T01:11:41.580Z,21.83
2017-11-21T01:14:09.108Z,20.27
2017-11-21T01:16:36.638Z,20.17
2017-11-21T01:19:04.199Z,20.40
2017-11-21T01:21:31.725Z,19.13
2017-11-21T01:23:59.253Z,19.07
2017-11-21T01:26:26.772Z,21.37
2017-11-21T01:28:54.295Z,19.43
2017-11-21T01:31:21.823Z,21.77
2017-11-21T01:33:49.350Z,19.23
2017-11-21T01:36:16.870Z,21.43
2017-11-21T01:38:44.400Z,21.73
2017-11-21T01:41:11.926Z,22.73
2017-11-21T01:43:39.450Z,21.60
2017-11-21T01:46:06.974Z,20.43
2017-11-21T01:48:34.510Z,22.07
2017-11-21T01:51:02.035Z,22.00
2017-11-21T01:53:29.566Z,20.23
2017-11-21T01:55:57.086Z,20.77
2017-11-21T01:58:24.620Z,20.50
2017-11-21T02:00:52.138Z,21.13
2017-11-21T02:03:19.668Z,21.80
2017-11-21T02:05:47.190Z,21.17
2017-11-21T02:08:14.712Z,21.20
2017-11-21T02:10:42.241Z,22.97
2017-11-21T02:13:09.768Z,22.57
2017-11-21T02:15:37.424Z,20.90
2017-11-21T02:18:04.955Z,21.97
2017-11-21T02:20:32.470Z,21.60
2017-11-21T02:22:59.987Z,20.43
2017-11-21T02:25:27.538Z,20.23
2017-11-21T02:27:55.078Z,20.50
2017-11-21T02:30:22.615Z,22.77
2017-11-21T02:32:50.155Z,25.07
2017-11-21T02:35:17.680Z,23.37
2017-11-21T02:37:45.198Z,20.60
2017-11-21T02:40:12.724Z,21.87
2017-11-21T02:42:40.253Z,19.07
2017-11-21T02:45:09.275Z,22.87
2017-11-21T02:47:36.811Z,22.63
2017-11-21T02:50:04.337Z,21.87
2017-11-21T02:52:31.859Z,20.60
2017-11-21T02:54:59.380Z,26.70
2017-11-21T02:57:26.911Z,21.37
2017-11-21T02:59:54.454Z,21.77
2017-11-21T03:02:21.982Z,22.00
2017-11-21T03:04:49.499Z,19.67
2017-11-21T03:07:17.028Z,21.00
2017-11-21T03:09:44.551Z,22.80
2017-11-21T03:12:12.074Z,22.53
2017-11-21T03:14:39.591Z,21.97
2017-11-21T03:17:07.115Z,22.30
2017-11-21T03:19:34.636Z,21.00
2017-11-21T03:22:13.993Z,22.13
2017-11-21T03:24:53.334Z,19.10
2017-11-21T03:27:31.824Z,22.27
2017-11-21T03:29:59.355Z,21.73
2017-11-21T03:32:26.878Z,22.60
2017-11-21T03:34:54.410Z,21.90
2017-11-21T03:37:21.927Z,23.23
2017-11-21T03:39:49.456Z,21.97
2017-11-21T03:42:16.973Z,22.20
2017-11-21T03:44:44.499Z,23.43
2017-11-21T03:47:12.020Z,21.50
2017-11-21T03:49:39.537Z,22.53
2017-11-21T03:52:07.055Z,22.10
2017-11-21T03:54:34.580Z,20.77
2017-11-21T03:57:02.106Z,20.93
2017-11-21T03:59:29.621Z,22.27
2017-11-21T04:01:57.134Z,21.93
2017-11-21T04:04:24.651Z,22.07
2017-11-21T04:06:52.178Z,25.73
2017-11-21T04:09:19.702Z,20.40
2017-11-21T04:11:47.229Z,23.13
2017-11-21T04:14:14.750Z,21.93
2017-11-21T04:16:42.270Z,21.73
2017-11-21T04:19:09.794Z,21.57
2017-11-21T04:21:37.307Z,21.90
2017-11-21T04:24:04.824Z,24.73
2017-11-21T04:26:32.350Z,23.53
2017-11-21T04:28:59.865Z,23.90
2017-11-21T04:31:27.376Z,22.03
2017-11-21T04:33:54.894Z,22.10
2017-11-21T04:36:22.410Z,20.83
2017-11-21T04:38:49.931Z,23.20
2017-11-21T04:41:17.501Z,22.77
2017-11-21T04:43:45.023Z,24.67
2017-11-21T04:46:12.548Z,23.70
2017-11-21T04:48:40.072Z,25.17
2017-11-21T04:51:07.594Z,22.00
2017-11-21T04:53:35.125Z,22.90
2017-11-21T04:56:02.649Z,22.73
2017-11-21T04:58:30.169Z,22.57
2017-11-21T05:00:57.699Z,21.43
2017-11-21T05:03:25.238Z,23.47
2017-11-21T05:05:52.758Z,24.13
2017-11-21T05:08:20.285Z,23.33
2017-11-21T05:10:47.822Z,25.53
2017-11-21T05:13:15.364Z,22.90
2017-11-21T05:15:42.891Z,24.70
2017-11-21T05:18:10.420Z,25.60
2017-11-21T05:20:37.938Z,24.90
2017-11-21T05:23:05.467Z,23.43
2017-11-21T05:25:33.002Z,25.80
2017-11-21T05:28:00.527Z,27.30
2017-11-21T05:30:28.064Z,26.43
2017-11-21T05:33:07.443Z,24.17
2017-11-21T05:35:34.960Z,25.00
2017-11-21T05:38:02.489Z,25.20
2017-11-21T05:40:30.030Z,25.57
2017-11-21T05:42:57.555Z,27.53
2017-11-21T05:45:25.069Z,24.73
2017-11-21T05:47:52.582Z,27.37
2017-11-21T05:50:20.105Z,27.23
2017-11-21T05:52:47.627Z,27.70
2017-11-21T05:55:15.151Z,27.37
2017-11-21T05:57:42.670Z,28.47
2017-11-21T06:00:10.189Z,25.73
2017-11-21T06:02:37.711Z,27.00
2017-11-21T06:05:05.234Z,29.00
2017-11-21T06:07:32.752Z,31.07
2017-11-21T06:10:00.275Z,29.80
2017-11-21T06:12:27.820Z,29.80
2017-11-21T06:14:55.334Z,29.97
2017-11-21T06:17:22.878Z,27.43
2017-11-21T06:19:50.392Z,26.67
2017-11-21T06:22:17.938Z,25.03
2017-11-21T06:24:45.461Z,26.97
2017-11-21T06:27:12.983Z,26.33
2017-11-21T06:29:40.509Z,25.97
2017-11-21T06:32:08.070Z,26.57
2017-11-21T06:34:35.578Z,27.67
2017-11-21T06:37:03.102Z,27.90
2017-11-21T06:39:30.638Z,27.83
2017-11-21T06:41:58.187Z,25.27
2017-11-21T06:44:25.727Z,27.03
2017-11-21T06:46:53.252Z,25.93
2017-11-21T06:49:20.790Z,27.67
2017-11-21T06:51:48.310Z,28.40
2017-11-21T06:54:15.838Z,28.80
2017-11-21T06:56:43.372Z,26.90
2017-11-21T06:59:10.901Z,27.93
2017-11-21T07:01:38.429Z,28.97
2017-11-21T07:04:05.952Z,23.67
2017-11-21T07:06:33.471Z,27.33
2017-11-21T07:09:00.990Z,23.93
2017-11-21T07:11:28.511Z,33.80
2017-11-21T07:13:56.026Z,25.80
2017-11-21T07:16:23.542Z,24.67
2017-11-21T07:18:51.063Z,28.33
2017-11-21T07:21:18.578Z,26.43
2017-11-21T07:23:46.096Z,29.77
2017-11-21T07:26:13.624Z,26.43
2017-11-21T07:28:41.137Z,25.43
2017-11-21T07:31:08.774Z,25.53
2017-11-21T07:33:36.298Z,25.23
2017-11-21T07:36:03.819Z,28.63
2017-11-21T07:38:31.353Z,26.63
2017-11-21T07:40:58.879Z,26.60
2017-11-21T07:43:26.398Z,26.77
2017-11-21T07:45:53.925Z,27.70
2017-11-21T07:48:21.446Z,28.03
2017-11-21T07:50:48.961Z,26.60
2017-11-21T07:53:16.474Z,26.80
2017-11-21T07:55:44.011Z,25.13
2017-11-21T07:58:11.527Z,25.10
2017-11-21T08:00:39.052Z,24.90
2017-11-21T08:03:06.588Z,26.40
2017-11-21T08:05:34.131Z,25.83
2017-11-21T08:08:01.683Z,23.17
2017-11-21T08:10:29.205Z,24.17
2017-11-21T08:12:56.718Z,24.47
2017-11-21T08:15:24.231Z,22.93
2017-11-21T08:17:52.015Z,26.47
2017-11-21T08:20:19.582Z,25.53
2017-11-21T08:22:47.096Z,23.03
2017-11-21T08:25:14.619Z,26.13
2017-11-21T08:27:42.139Z,27.63
2017-11-21T08:30:09.665Z,22.03
2017-11-21T08:32:37.190Z,23.57
2017-11-21T08:35:04.707Z,20.53
2017-11-21T08:37:32.226Z,24.20
2017-11-21T08:39:59.751Z,24.13
2017-11-21T08:42:27.266Z,21.53
2017-11-21T08:44:54.820Z,24.80
2017-11-21T08:47:22.393Z,23.90
2017-11-21T08:49:50.130Z,22.10
2017-11-21T08:52:17.678Z,23.97
2017-11-21T08:54:45.341Z,22.70
2017-11-21T08:57:12.888Z,21.00
2017-11-21T08:59:40.440Z,25.40
2017-11-21T09:02:07.958Z,24.37
2017-11-21T09:04:35.512Z,24.00
2017-11-21T09:07:03.071Z,23.00
2017-11-21T09:09:30.592Z,23.77
2017-11-21T09:11:58.110Z,19.63
2017-11-21T09:14:25.639Z,20.80
2017-11-21T09:16:53.407Z,24.80
2017-11-21T09:19:20.972Z,20.57
2017-11-21T09:21:48.494Z,20.87
2017-11-21T09:24:16.018Z,21.10
2017-11-21T09:26:43.551Z,18.73
2017-11-21T09:29:11.078Z,21.00
2017-11-21T09:31:38.603Z,19.67
2017-11-21T09:34:06.118Z,27.87
2017-11-21T09:36:33.659Z,23.47
2017-11-21T09:39:01.187Z,22.70
2017-11-21T09:41:28.713Z,17.53
2017-11-21T09:43:56.240Z,19.83
2017-11-21T09:46:23.851Z,21.77
2017-11-21T09:48:51.375Z,18.50
2017-11-21T09:51:18.896Z,22.20
2017-11-21T09:53:46.423Z,19.40
2017-11-21T09:56:13.938Z,20.50
2017-11-21T09:58:41.604Z,20.07
2017-11-21T10:01:09.159Z,20.87
2017-11-21T10:03:36.859Z,19.40
2017-11-21T10:06:04.583Z,19.43
2017-11-21T10:08:32.319Z,16.83
2017-11-21T10:10:59.873Z,16.33
2017-11-21T10:13:27.434Z,17.87
2017-11-21T10:15:55.149Z,16.93
2017-11-21T10:18:22.676Z,19.13
2017-11-21T10:20:50.198Z,16.43
2017-11-21T10:23:17.798Z,14.53
2017-11-21T10:25:45.320Z,16.47
2017-11-21T10:28:12.834Z,16.20
2017-11-21T10:30:40.358Z,19.63
2017-11-21T10:33:07.880Z,18.23
2017-11-21T10:35:35.395Z,13.93
2017-11-21T10:38:02.916Z,13.97
2017-11-21T10:40:30.436Z,14.90
2017-11-21T10:42:57.963Z,13.17
2017-11-21T10:45:25.495Z,16.10
2017-11-21T10:47:53.041Z,19.20
2017-11-21T10:50:20.558Z,17.13
2017-11-21T10:52:48.079Z,17.03
2017-11-21T10:55:15.599Z,18.20
2017-11-21T10:57:43.115Z,18.20
2017-11-21T11:00:10.635Z,18.50
2017-11-21T11:02:38.160Z,16.07
2017-11-21T11:05:05.682Z,16.97
2017-11-21T11:07:33.213Z,19.27
2017-11-21T11:10:00.741Z,18.10
2017-11-21T11:12:28.275Z,16.83
2017-11-21T11:14:55.806Z,17.70
2017-11-21T11:17:23.336Z,16.30
2017-11-21T11:19:50.874Z,15.97
2017-11-21T11:22:18.429Z,17.60
2017-11-21T11:24:45.945Z,17.13
2017-11-21T11:27:13.465Z,18.23
2017-11-21T11:29:41.002Z,17.23
2017-11-21T11:32:08.535Z,14.67
2017-11-21T11:34:36.054Z,16.83
2017-11-21T11:37:03.575Z,16.83
2017-11-21T11:39:31.095Z,16.40
2017-11-21T11:41:58.619Z,17.30
2017-11-21T11:44:26.141Z,17.90
2017-11-21T11:46:53.659Z,15.00
2017-11-21T11:49:21.174Z,16.40
2017-11-21T11:51:48.705Z,17.53
2017-11-21T11:54:16.231Z,15.40
2017-11-21T11:56:43.763Z,16.10
2017-11-21T11:59:11.287Z,17.00
2017-11-21T12:01:38.815Z,17.00
2017-11-21T12:04:06.362Z,17.53
2017-11-21T12:06:33.879Z,17.30
2017-11-21T12:09:01.402Z,16.40
2017-11-21T12:11:28.923Z,15.17
2017-11-21T12:13:56.443Z,11.17
2017-11-21T12:16:23.970Z,14.00
2017-11-21T12:18:51.498Z,12.83
2017-11-21T12:21:19.029Z,14.53
2017-11-21T12:23:46.596Z,13.73
2017-11-21T12:26:14.115Z,13.53
2017-11-21T12:28:41.667Z,14.83
2017-11-21T12:31:09.199Z,14.00
2017-11-21T12:33:36.731Z,14.07
2017-11-21T12:36:04.246Z,13.53
2017-11-21T12:38:31.768Z,15.83
2017-11-21T12:41:00.013Z,15.20
2017-11-21T12:43:27.530Z,14.87
2017-11-21T12:45:55.050Z,12.93
2017-11-21T12:48:22.583Z,14.70
2017-11-21T12:50:50.103Z,14.20
2017-11-21T12:53:17.807Z,16.77
2017-11-21T12:55:45.318Z,14.37
2017-11-21T12:58:12.839Z,15.03
2017-11-21T13:00:41.293Z,14.73
2017-11-21T13:03:08.807Z,14.23
2017-11-21T13:05:36.335Z,13.97
2017-11-21T13:08:03.855Z,15.77
2017-11-21T13:10:31.377Z,13.53
2017-11-21T13:12:58.905Z,13.90
2017-11-21T13:15:26.424Z,13.63
2017-11-21T13:17:53.967Z,14.70
2017-11-21T13:20:21.489Z,14.73
2017-11-21T13:22:49.011Z,14.77
2017-11-21T13:25:16.535Z,15.60
2017-11-21T13:27:44.051Z,17.20
2017-11-21T13:30:11.580Z,15.23
2017-11-21T13:32:39.097Z,15.23
2017-11-21T13:35:06.619Z,16.07
2017-11-21T13:37:34.150Z,16.93
2017-11-21T13:40:01.682Z,14.33
2017-11-21T13:42:29.208Z,16.63
2017-11-21T13:44:56.743Z,14.57
2017-11-21T13:47:24.266Z,13.90
2017-11-21T13:49:51.793Z,14.43
2017-11-21T13:52:19.311Z,13.73
2017-11-21T13:54:46.846Z,14.80
2017-11-21T13:57:14.372Z,14.47
2017-11-21T13:59:41.898Z,15.53
2017-11-21T14:02:09.416Z,15.70
2017-11-21T14:04:36.941Z,13.77
2017-11-21T14:07:04.464Z,14.33
2017-11-21T14:09:31.990Z,15.57
2017-11-21T14:11:59.509Z,15.33
2017-11-21T14:14:27.026Z,14.03
2017-11-21T14:16:54.565Z,15.97
2017-11-21T14:19:22.075Z,13.03
2017-11-21T14:21:49.590Z,12.93
2017-11-21T14:24:17.108Z,13.53
2017-11-21T14:26:44.651Z,13.93
2017-11-21T14:29:12.167Z,13.37
2017-11-21T14:31:39.706Z,14.20
2017-11-21T14:34:07.216Z,13.47
2017-11-21T14:36:34.732Z,12.60
2017-11-21T14:39:02.248Z,11.17
2017-11-21T14:41:29.779Z,11.83
2017-11-21T14:43:57.290Z,12.10
2017-11-21T14:46:24.798Z,11.07
2017-11-21T14:48:52.325Z,14.20
2017-11-21T14:51:19.838Z,11.87
2017-11-21T14:53:47.363Z,14.03
2017-11-21T14:56:14.893Z,12.50
2017-11-21T14:58:42.419Z,17.80
2017-11-21T15:01:10.591Z,17.50
2017-11-21T15:03:38.949Z,15.53
2017-11-21T15:06:06.491Z,15.30
2017-11-21T15:08:34.011Z,14.83
2017-11-21T15:11:01.965Z,17.70
2017-11-21T15:13:29.480Z,16.37
2017-11-21T15:15:56.998Z,17.37
2017-11-21T15:18:24.524Z,17.80
2017-11-21T15:20:52.044Z,18.57
2017-11-21T15:23:19.565Z,19.67
2017-11-21T15:25:47.087Z,21.03
2017-11-21T15:28:14.607Z,16.50
2017-11-21T15:30:42.131Z,18.17
2017-11-21T15:33:09.654Z,18.33
2017-11-21T15:35:37.169Z,15.60
2017-11-21T15:38:04.691Z,17.30
2017-11-21T15:40:32.222Z,19.30
2017-11-21T15:42:59.750Z,17.67
2017-11-21T15:45:27.286Z,15.97
2017-11-21T15:47:54.806Z,16.27
2017-11-21T15:50:22.332Z,16.70
2017-11-21T15:52:49.853Z,18.57
2017-11-21T15:55:17.378Z,19.57
2017-11-21T15:57:44.897Z,19.40
2017-11-21T16:00:12.406Z,18.53
2017-11-21T16:02:39.923Z,18.97
2017-11-21T16:05:07.435Z,18.03
2017-11-21T16:07:34.951Z,18.63
2017-11-21T16:10:02.485Z,16.53
2017-11-21T16:12:30.008Z,16.50
2017-11-21T16:14:57.525Z,19.10
2017-11-21T16:17:25.048Z,21.77
2017-11-21T16:19:52.583Z,16.27
2017-11-21T16:22:20.106Z,16.97
2017-11-21T16:24:47.623Z,17.30
2017-11-21T16:27:15.147Z,16.17
2017-11-21T16:29:42.680Z,19.40
2017-11-21T16:32:10.225Z,20.23
2017-11-21T16:34:37.738Z,19.97
2017-11-21T16:37:05.258Z,16.10
2017-11-21T16:39:32.788Z,16.93
2017-11-21T16:42:00.307Z,16.67
2017-11-21T16:44:27.839Z,19.30
2017-11-21T16:46:55.355Z,17.43
2017-11-21T16:49:22.878Z,18.27
2017-11-21T16:51:50.404Z,19.13
2017-11-21T16:54:17.934Z,19.63
2017-11-21T16:56:45.467Z,18.90
2017-11-21T16:59:14.937Z,20.83
2017-11-21T17:01:43.257Z,19.90
2017-11-21T17:04:10.780Z,19.83
2017-11-21T17:06:38.303Z,18.70
2017-11-21T17:09:05.860Z,19.87
2017-11-21T17:11:33.378Z,19.23
2017-11-21T17:14:00.911Z,17.93
2017-11-21T17:16:28.429Z,19.90
2017-11-21T17:18:55.960Z,18.40
2017-11-21T17:21:23.493Z,18.20
2017-11-21T17:23:51.023Z,20.10
2017-11-21T17:26:18.543Z,18.00
2017-11-21T17:28:46.072Z,18.33
2017-11-21T17:31:13.586Z,17.43
2017-11-21T17:33:41.103Z,16.93
2017-11-21T17:36:08.619Z,15.77
2017-11-21T17:38:36.138Z,18.33
2017-11-21T17:41:03.650Z,17.70
2017-11-21T17:43:31.179Z,17.63
2017-11-21T17:45:58.707Z,19.10
2017-11-21T17:48:26.228Z,19.53
2017-11-21T17:50:53.768Z,15.47
2017-11-21T17:53:21.287Z,19.37
2017-11-21T17:55:48.793Z,20.70
2017-11-21T17:58:16.314Z,16.67
2017-11-21T18:00:43.827Z,20.17
2017-11-21T18:03:11.346Z,19.83
2017-11-21T18:05:38.876Z,19.73
2017-11-21T18:08:06.390Z,19.43
2017-11-21T18:10:33.915Z,17.03
2017-11-21T18:13:01.430Z,16.20
2017-11-21T18:15:28.951Z,16.27
2017-11-21T18:17:56.475Z,17.87
2017-11-21T18:20:23.999Z,16.67
2017-11-21T18:22:51.540Z,16.30
2017-11-21T18:25:19.067Z,16.60
2017-11-21T18:27:46.590Z,16.43
2017-11-21T18:30:14.110Z,17.43
2017-11-21T18:32:53.405Z,19.00
2017-11-21T18:35:20.931Z,18.23
2017-11-21T18:37:48.452Z,16.63
2017-11-21T18:40:15.974Z,16.47
2017-11-21T18:42:43.485Z,15.53
2017-11-21T18:45:10.998Z,15.90
2017-11-21T18:47:38.516Z,18.87
2017-11-21T18:50:06.040Z,16.47
2017-11-21T18:52:33.594Z,16.70
2017-11-21T18:55:01.215Z,16.13
2017-11-21T18:57:28.741Z,17.20
2017-11-21T18:59:56.269Z,15.93
2017-11-21T19:02:23.788Z,16.23
2017-11-21T19:04:51.359Z,14.13
2017-11-21T19:07:18.872Z,14.57
2017-11-21T19:09:46.393Z,14.10
2017-11-21T19:12:13.910Z,13.90
2017-11-21T19:14:41.420Z,13.43
2017-11-21T19:17:08.956Z,12.03
2017-11-21T19:19:36.469Z,14.37
2017-11-21T19:22:03.981Z,13.47
2017-11-21T19:24:31.493Z,13.60
2017-11-21T19:26:59.012Z,13.63
2017-11-21T19:29:26.517Z,13.03
2017-11-21T19:31:54.036Z,11.20
2017-11-21T19:34:21.696Z,12.03
2017-11-21T19:36:49.215Z,12.07
2017-11-21T19:39:16.725Z,10.90
2017-11-21T19:41:44.257Z,12.67
2017-11-21T19:44:11.770Z,11.47
2017-11-21T19:46:39.296Z,10.50
2017-11-21T19:49:06.819Z,10.43
2017-11-21T19:51:34.693Z,10.73
2017-11-21T19:54:02.247Z,12.37
2017-11-21T19:56:29.776Z,11.53
2017-11-21T19:58:57.291Z,12.03
2017-11-21T20:01:24.811Z,12.47
2017-11-21T20:03:52.534Z,15.00
2017-11-21T20:06:20.055Z,12.53
2017-11-21T20:08:47.577Z,10.10
2017-11-21T20:11:15.378Z,11.70
2017-11-21T20:13:42.918Z,13.67
2017-11-21T20:16:10.426Z,13.77
2017-11-21T20:18:37.962Z,12.83
2017-11-21T20:21:05.475Z,14.87
2017-11-21T20:23:32.994Z,11.23
2017-11-21T20:26:00.502Z,11.63
2017-11-21T20:28:28.015Z,13.37
2017-11-21T20:30:55.548Z,13.30
2017-11-21T20:33:23.062Z,13.47
2017-11-21T20:35:50.608Z,12.93
2017-11-21T20:38:18.123Z,14.53
2017-11-21T20:40:45.648Z,11.07
2017-11-21T20:43:13.232Z,12.83
2017-11-21T20:45:40.756Z,10.80
2017-11-21T20:48:08.270Z,12.63
2017-11-21T20:50:35.783Z,11.30
2017-11-21T20:53:03.310Z,12.83
2017-11-21T20:55:30.831Z,10.87
2017-11-21T20:57:58.355Z,13.57
2017-11-21T21:00:25.986Z,12.50
2017-11-21T21:02:53.626Z,13.27
2017-11-21T21:05:21.145Z,14.30
2017-11-21T21:07:48.802Z,10.03
2017-11-21T21:10:16.326Z,10.23
2017-11-21T21:12:43.852Z,11.47
2017-11-21T21:15:11.380Z,10.73
2017-11-21T21:17:38.918Z,13.00
2017-11-21T21:20:06.433Z,14.40
2017-11-21T21:22:33.944Z,12.23
2017-11-21T21:25:01.469Z,13.00
2017-11-21T21:27:39.810Z,11.50
2017-11-21T21:30:07.329Z,10.47
2017-11-21T21:32:34.850Z,12.47
2017-11-21T21:35:02.454Z,10.43
2017-11-21T21:37:29.991Z,10.97
2017-11-21T21:39:57.502Z,10.43
2017-11-21T21:42:25.030Z,11.40
2017-11-21T21:44:52.551Z,10.83
2017-11-21T21:47:20.131Z,11.50
2017-11-21T21:49:47.646Z,10.20
2017-11-21T21:52:15.154Z,11.63
2017-11-21T21:54:42.675Z,9.77
2017-11-21T21:57:10.218Z,7.83
2017-11-21T21:59:37.747Z,8.10
2017-11-21T22:02:05.315Z,10.50
2017-11-21T22:04:32.831Z,8.03
2017-11-21T22:07:00.354Z,9.57
2017-11-21T22:09:27.902Z,9.33
2017-11-21T22:11:55.411Z,9.90
2017-11-21T22:14:22.932Z,8.63
2017-11-21T22:16:50.446Z,8.43
2017-11-21T22:19:17.970Z,8.93
2017-11-21T22:21:45.492Z,8.53
2017-11-21T22:24:13.006Z,9.03
2017-11-21T22:26:40.514Z,8.33
2017-11-21T22:29:08.048Z,8.53
2017-11-21T22:31:35.571Z,10.53
2017-11-21T22:34:03.087Z,8.83
2017-11-21T22:36:30.597Z,9.20
2017-11-21T22:38:58.119Z,10.97
2017-11-21T22:41:25.627Z,11.77
2017-11-21T22:43:53.139Z,10.40
2017-11-21T22:46:20.649Z,10.43
2017-11-21T22:48:48.164Z,12.03
2017-11-21T22:51:15.707Z,9.40
2017-11-21T22:53:43.214Z,8.73
2017-11-21T22:56:10.735Z,9.90
2017-11-21T22:58:38.238Z,9.97
2017-11-21T23:01:05.755Z,11.00
2017-11-21T23:03:33.269Z,9.90
2017-11-21T23:06:00.785Z,10.00
2017-11-21T23:08:28.304Z,13.03
2017-11-21T23:10:55.809Z,10.17
2017-11-21T23:13:23.330Z,10.50
2017-11-21T23:15:50.848Z,9.53
2017-11-21T23:18:18.369Z,11.37
2017-11-21T23:20:45.884Z,9.40
2017-11-21T23:23:13.423Z,10.03
2017-11-21T23:25:40.944Z,9.30
2017-11-21T23:28:08.459Z,10.63
2017-11-21T23:30:35.967Z,10.47
2017-11-21T23:33:03.487Z,11.67
2017-11-21T23:35:31.004Z,10.87
2017-11-21T23:37:58.531Z,9.90
2017-11-21T23:40:26.056Z,11.40
2017-11-21T23:42:53.568Z,12.00
2017-11-21T23:45:21.089Z,12.67
2017-11-21T23:47:48.612Z,12.80
2017-11-21T23:50:16.129Z,8.90
2017-11-21T23:52:43.644Z,10.83
2017-11-21T23:55:11.167Z,10.70
2017-11-21T23:57:38.699Z,12.27
